Aviation Digital Data Service (ADDS)

Output produced by METARs form (1104 UTC 20 September 2017)
found at http://www.aviationweather.gov/adds/metars/
 
KSAV 201053Z 22005KT 10SM FEW060 BKN085 BKN250 23/22 A3002 RMK AO2 SLP163 T02330217
KSVN 201058Z AUTO 25004KT 10SM FEW085 23/21 A2999 RMK AO2 SLP158 T02310211
KLHW 201058Z AUTO 00000KT 10SM CLR 22/20 A2999 RMK AO2 SLP158 T02200197 $
KTBR 201055Z AUTO 00000KT 10SM CLR 22/21 A3001 RMK AO2 T02150205
KVDI 201055Z AUTO 00000KT 10SM CLR 22/21 A3001 RMK AO2
KJYL 201055Z AUTO 00000KT 7SM CLR 21/21 A3002 RMK AO2 T02130213
KDBN 201055Z AUTO 00000KT 3SM BR SCT055 19/18 A3003 RMK AO2
KSSI 201053Z AUTO 23003KT 10SM SCT055 BKN080 24/22 A3001 RMK AO2 SLP163 T02390217
KBQK 201055Z AUTO 00000KT 10SM CLR 22/20 A3002 RMK AO2
KAYS 201055Z AUTO 00000KT 10SM CLR 22/20 A3001 RMK AO2 T02200203
KNBC 201056Z 00000KT 10SM FEW050 SCT075 24/23 A3001 RMK AO2 SLP163 T02390228
KHXD 201050Z 00000KT 10SM BKN035 24/23 A3002